sensor_id;sensor_type;location;lat;lon;timestamp;P1;durP1;ratioP1;P2;durP2;ratioP2
31537;SDS011;18147;51.952;6.146;2023-03-23T00:01:06;8.40;;;4.88;;
31537;SDS011;18147;51.952;6.146;2023-03-23T00:03:35;9.75;;;4.85;;
31537;SDS011;18147;51.952;6.146;2023-03-23T00:06:01;12.57;;;5.30;;
31537;SDS011;18147;51.952;6.146;2023-03-23T00:08:48;7.65;;;4.50;;
31537;SDS011;18147;51.952;6.146;2023-03-23T00:11:21;15.55;;;4.72;;
31537;SDS011;18147;51.952;6.146;2023-03-23T00:13:49;11.52;;;4.22;;
31537;SDS011;18147;51.952;6.146;2023-03-23T00:16:19;7.90;;;4.03;;
31537;SDS011;18147;51.952;6.146;2023-03-23T00:18:54;13.15;;;5.07;;
31537;SDS011;18147;51.952;6.146;2023-03-23T00:21:24;8.93;;;4.43;;
31537;SDS011;18147;51.952;6.146;2023-03-23T00:24:09;14.10;;;4.97;;
31537;SDS011;18147;51.952;6.146;2023-03-23T00:26:36;10.43;;;4.32;;
31537;SDS011;18147;51.952;6.146;2023-03-23T00:29:11;11.90;;;4.80;;
31537;SDS011;18147;51.952;6.146;2023-03-23T00:31:42;9.57;;;4.13;;
31537;SDS011;18147;51.952;6.146;2023-03-23T00:34:12;9.90;;;4.13;;
31537;SDS011;18147;51.952;6.146;2023-03-23T00:36:43;8.43;;;4.43;;
31537;SDS011;18147;51.952;6.146;2023-03-23T00:39:11;6.32;;;3.80;;
31537;SDS011;18147;51.952;6.146;2023-03-23T00:41:36;14.10;;;4.38;;
31537;SDS011;18147;51.952;6.146;2023-03-23T00:44:03;8.95;;;4.70;;
31537;SDS011;18147;51.952;6.146;2023-03-23T00:46:29;10.27;;;4.35;;
31537;SDS011;18147;51.952;6.146;2023-03-23T00:48:55;9.50;;;4.60;;
31537;SDS011;18147;51.952;6.146;2023-03-23T00:51:22;6.38;;;4.05;;
31537;SDS011;18147;51.952;6.146;2023-03-23T00:53:47;5.80;;;3.58;;
31537;SDS011;18147;51.952;6.146;2023-03-23T00:56:13;7.60;;;4.18;;
31537;SDS011;18147;51.952;6.146;2023-03-23T00:58:39;6.97;;;3.90;;
31537;SDS011;18147;51.952;6.146;2023-03-23T01:01:05;7.38;;;4.30;;
31537;SDS011;18147;51.952;6.146;2023-03-23T01:06:07;7.20;;;3.90;;
31537;SDS011;18147;51.952;6.146;2023-03-23T01:08:37;10.18;;;4.25;;
31537;SDS011;18147;51.952;6.146;2023-03-23T01:11:11;14.48;;;4.72;;
31537;SDS011;18147;51.952;6.146;2023-03-23T01:13:38;7.75;;;3.80;;
31537;SDS011;18147;51.952;6.146;2023-03-23T01:16:03;7.28;;;3.92;;
31537;SDS011;18147;51.952;6.146;2023-03-23T01:18:29;8.63;;;4.40;;
31537;SDS011;18147;51.952;6.146;2023-03-23T01:20:55;10.60;;;4.45;;
31537;SDS011;18147;51.952;6.146;2023-03-23T01:23:20;9.82;;;3.95;;
31537;SDS011;18147;51.952;6.146;2023-03-23T01:25:46;13.65;;;4.90;;
31537;SDS011;18147;51.952;6.146;2023-03-23T01:28:11;7.13;;;4.40;;
31537;SDS011;18147;51.952;6.146;2023-03-23T01:30:37;18.58;;;5.05;;
31537;SDS011;18147;51.952;6.146;2023-03-23T01:33:02;11.40;;;4.70;;
31537;SDS011;18147;51.952;6.146;2023-03-23T01:35:28;10.30;;;5.10;;
31537;SDS011;18147;51.952;6.146;2023-03-23T01:37:53;5.90;;;3.90;;
31537;SDS011;18147;51.952;6.146;2023-03-23T01:48:27;7.60;;;4.70;;
31537;SDS011;18147;51.952;6.146;2023-03-23T01:51:02;10.57;;;4.70;;
31537;SDS011;18147;51.952;6.146;2023-03-23T01:53:34;7.20;;;4.28;;
31537;SDS011;18147;51.952;6.146;2023-03-23T01:56:03;14.90;;;6.05;;
31537;SDS011;18147;51.952;6.146;2023-03-23T01:58:32;6.78;;;4.50;;
31537;SDS011;18147;51.952;6.146;2023-03-23T02:01:02;8.65;;;4.65;;
31537;SDS011;18147;51.952;6.146;2023-03-23T02:03:30;7.45;;;4.38;;
31537;SDS011;18147;51.952;6.146;2023-03-23T02:05:58;8.82;;;5.13;;
31537;SDS011;18147;51.952;6.146;2023-03-23T02:08:36;10.98;;;4.25;;
31537;SDS011;18147;51.952;6.146;2023-03-23T02:11:11;6.30;;;4.57;;
31537;SDS011;18147;51.952;6.146;2023-03-23T02:13:39;7.70;;;4.82;;
31537;SDS011;18147;51.952;6.146;2023-03-23T02:16:20;9.00;;;4.40;;
31537;SDS011;18147;51.952;6.146;2023-03-23T02:35:53;6.60;;;4.43;;
31537;SDS011;18147;51.952;6.146;2023-03-23T02:38:32;5.22;;;3.83;;
31537;SDS011;18147;51.952;6.146;2023-03-23T02:41:09;6.38;;;4.40;;
31537;SDS011;18147;51.952;6.146;2023-03-23T02:43:38;6.97;;;4.10;;
31537;SDS011;18147;51.952;6.146;2023-03-23T02:46:08;12.65;;;5.03;;
31537;SDS011;18147;51.952;6.146;2023-03-23T02:48:35;13.75;;;5.15;;
31537;SDS011;18147;51.952;6.146;2023-03-23T02:51:03;8.45;;;4.25;;
31537;SDS011;18147;51.952;6.146;2023-03-23T02:53:31;11.80;;;5.20;;
31537;SDS011;18147;51.952;6.146;2023-03-23T02:56:01;9.45;;;3.95;;
31537;SDS011;18147;51.952;6.146;2023-03-23T02:58:30;8.73;;;4.88;;
31537;SDS011;18147;51.952;6.146;2023-03-23T03:00:56;10.77;;;5.05;;
31537;SDS011;18147;51.952;6.146;2023-03-23T03:03:26;9.85;;;4.60;;
31537;SDS011;18147;51.952;6.146;2023-03-23T03:08:46;6.53;;;4.55;;
31537;SDS011;18147;51.952;6.146;2023-03-23T03:11:18;8.07;;;4.70;;
31537;SDS011;18147;51.952;6.146;2023-03-23T03:13:55;8.25;;;4.32;;
31537;SDS011;18147;51.952;6.146;2023-03-23T03:16:38;7.07;;;4.22;;
31537;SDS011;18147;51.952;6.146;2023-03-23T03:19:10;8.45;;;4.50;;
31537;SDS011;18147;51.952;6.146;2023-03-23T03:21:40;8.85;;;4.75;;
31537;SDS011;18147;51.952;6.146;2023-03-23T03:24:10;6.97;;;4.35;;
31537;SDS011;18147;51.952;6.146;2023-03-23T03:26:39;7.90;;;4.70;;
31537;SDS011;18147;51.952;6.146;2023-03-23T03:29:21;10.88;;;5.07;;
31537;SDS011;18147;51.952;6.146;2023-03-23T03:31:51;9.15;;;5.15;;
31537;SDS011;18147;51.952;6.146;2023-03-23T03:34:20;8.40;;;4.85;;
31537;SDS011;18147;51.952;6.146;2023-03-23T03:36:48;11.32;;;5.05;;
31537;SDS011;18147;51.952;6.146;2023-03-23T03:39:15;7.10;;;5.22;;
31537;SDS011;18147;51.952;6.146;2023-03-23T03:41:43;10.77;;;5.93;;
31537;SDS011;18147;51.952;6.146;2023-03-23T03:44:09;10.73;;;5.65;;
31537;SDS011;18147;51.952;6.146;2023-03-23T03:46:35;10.95;;;5.95;;
31537;SDS011;18147;51.952;6.146;2023-03-23T03:49:03;9.10;;;5.75;;
31537;SDS011;18147;51.952;6.146;2023-03-23T03:51:32;7.57;;;5.05;;
31537;SDS011;18147;51.952;6.146;2023-03-23T03:53:58;8.45;;;5.63;;
31537;SDS011;18147;51.952;6.146;2023-03-23T03:56:24;6.60;;;5.15;;
31537;SDS011;18147;51.952;6.146;2023-03-23T03:59:11;6.75;;;4.60;;
31537;SDS011;18147;51.952;6.146;2023-03-23T04:02:00;13.90;;;4.60;;
31537;SDS011;18147;51.952;6.146;2023-03-23T04:04:26;5.88;;;4.35;;
31537;SDS011;18147;51.952;6.146;2023-03-23T04:06:51;8.30;;;4.43;;
31537;SDS011;18147;51.952;6.146;2023-03-23T04:09:17;8.98;;;3.90;;
31537;SDS011;18147;51.952;6.146;2023-03-23T04:11:45;8.23;;;4.25;;
31537;SDS011;18147;51.952;6.146;2023-03-23T04:14:34;10.45;;;3.97;;
31537;SDS011;18147;51.952;6.146;2023-03-23T04:16:59;9.52;;;3.65;;
31537;SDS011;18147;51.952;6.146;2023-03-23T04:19:25;6.82;;;3.83;;
31537;SDS011;18147;51.952;6.146;2023-03-23T04:21:53;9.27;;;3.92;;
31537;SDS011;18147;51.952;6.146;2023-03-23T04:24:20;7.43;;;4.78;;
31537;SDS011;18147;51.952;6.146;2023-03-23T04:26:48;10.27;;;4.47;;
31537;SDS011;18147;51.952;6.146;2023-03-23T04:29:21;8.38;;;4.78;;
31537;SDS011;18147;51.952;6.146;2023-03-23T04:31:47;6.25;;;4.18;;
31537;SDS011;18147;51.952;6.146;2023-03-23T04:34:24;9.52;;;4.38;;
31537;SDS011;18147;51.952;6.146;2023-03-23T04:36:51;7.07;;;4.38;;
31537;SDS011;18147;51.952;6.146;2023-03-23T04:39:21;12.05;;;5.20;;
31537;SDS011;18147;51.952;6.146;2023-03-23T04:41:49;7.78;;;5.38;;
31537;SDS011;18147;51.952;6.146;2023-03-23T04:44:45;9.82;;;4.88;;
31537;SDS011;18147;51.952;6.146;2023-03-23T04:47:18;8.60;;;4.50;;
31537;SDS011;18147;51.952;6.146;2023-03-23T04:49:51;9.85;;;5.60;;
31537;SDS011;18147;51.952;6.146;2023-03-23T04:52:43;8.10;;;5.03;;
31537;SDS011;18147;51.952;6.146;2023-03-23T04:55:10;8.10;;;4.63;;
31537;SDS011;18147;51.952;6.146;2023-03-23T04:57:39;10.50;;;4.68;;
31537;SDS011;18147;51.952;6.146;2023-03-23T05:00:32;9.65;;;4.45;;
31537;SDS011;18147;51.952;6.146;2023-03-23T05:03:00;6.60;;;4.38;;
31537;SDS011;18147;51.952;6.146;2023-03-23T05:05:27;5.78;;;3.88;;
31537;SDS011;18147;51.952;6.146;2023-03-23T05:07:56;6.97;;;4.07;;
31537;SDS011;18147;51.952;6.146;2023-03-23T05:10:24;10.48;;;5.03;;
31537;SDS011;18147;51.952;6.146;2023-03-23T05:12:52;9.85;;;4.97;;
31537;SDS011;18147;51.952;6.146;2023-03-23T05:15:18;11.00;;;4.43;;
31537;SDS011;18147;51.952;6.146;2023-03-23T05:17:44;8.27;;;4.20;;
31537;SDS011;18147;51.952;6.146;2023-03-23T05:20:15;5.80;;;3.13;;
31537;SDS011;18147;51.952;6.146;2023-03-23T05:22:51;6.80;;;3.47;;
31537;SDS011;18147;51.952;6.146;2023-03-23T05:25:22;12.70;;;4.03;;
31537;SDS011;18147;51.952;6.146;2023-03-23T05:28:00;9.45;;;3.42;;
31537;SDS011;18147;51.952;6.146;2023-03-23T05:30:55;7.88;;;3.13;;
31537;SDS011;18147;51.952;6.146;2023-03-23T05:33:26;9.80;;;3.08;;
31537;SDS011;18147;51.952;6.146;2023-03-23T05:36:01;11.25;;;3.05;;
31537;SDS011;18147;51.952;6.146;2023-03-23T05:40:59;19.55;;;4.95;;
31537;SDS011;18147;51.952;6.146;2023-03-23T05:43:35;10.45;;;3.03;;
31537;SDS011;18147;51.952;6.146;2023-03-23T05:46:19;8.18;;;2.70;;
31537;SDS011;18147;51.952;6.146;2023-03-23T05:48:45;8.43;;;2.40;;
31537;SDS011;18147;51.952;6.146;2023-03-23T05:51:15;14.00;;;2.97;;
31537;SDS011;18147;51.952;6.146;2023-03-23T05:53:42;12.32;;;2.53;;
31537;SDS011;18147;51.952;6.146;2023-03-23T05:56:10;4.60;;;2.45;;
31537;SDS011;18147;51.952;6.146;2023-03-23T05:58:54;8.52;;;2.60;;
31537;SDS011;18147;51.952;6.146;2023-03-23T06:01:20;10.60;;;2.38;;
31537;SDS011;18147;51.952;6.146;2023-03-23T06:03:45;8.85;;;2.83;;
31537;SDS011;18147;51.952;6.146;2023-03-23T06:06:18;9.20;;;2.60;;
31537;SDS011;18147;51.952;6.146;2023-03-23T06:08:52;9.95;;;2.05;;
31537;SDS011;18147;51.952;6.146;2023-03-23T06:11:26;11.00;;;3.20;;
31537;SDS011;18147;51.952;6.146;2023-03-23T06:14:10;7.07;;;2.47;;
31537;SDS011;18147;51.952;6.146;2023-03-23T06:16:37;19.67;;;3.10;;
31537;SDS011;18147;51.952;6.146;2023-03-23T06:19:07;8.73;;;2.67;;
31537;SDS011;18147;51.952;6.146;2023-03-23T06:21:37;4.93;;;1.80;;
31537;SDS011;18147;51.952;6.146;2023-03-23T06:24:20;7.97;;;2.53;;
31537;SDS011;18147;51.952;6.146;2023-03-23T06:26:46;7.00;;;2.20;;
31537;SDS011;18147;51.952;6.146;2023-03-23T06:29:16;8.30;;;1.83;;
31537;SDS011;18147;51.952;6.146;2023-03-23T06:31:50;18.65;;;2.47;;
31537;SDS011;18147;51.952;6.146;2023-03-23T06:34:20;11.07;;;2.10;;
31537;SDS011;18147;51.952;6.146;2023-03-23T06:36:45;10.57;;;2.13;;
31537;SDS011;18147;51.952;6.146;2023-03-23T06:39:21;14.73;;;3.72;;
31537;SDS011;18147;51.952;6.146;2023-03-23T06:41:56;9.98;;;2.15;;
31537;SDS011;18147;51.952;6.146;2023-03-23T06:44:25;8.23;;;2.00;;
31537;SDS011;18147;51.952;6.146;2023-03-23T06:46:52;12.00;;;3.30;;
31537;SDS011;18147;51.952;6.146;2023-03-23T06:49:23;4.90;;;2.13;;
31537;SDS011;18147;51.952;6.146;2023-03-23T06:51:57;3.80;;;2.08;;
31537;SDS011;18147;51.952;6.146;2023-03-23T06:54:27;6.80;;;2.50;;
31537;SDS011;18147;51.952;6.146;2023-03-23T06:57:07;9.93;;;3.10;;
31537;SDS011;18147;51.952;6.146;2023-03-23T06:59:36;9.52;;;2.45;;
31537;SDS011;18147;51.952;6.146;2023-03-23T07:02:24;4.80;;;1.83;;
31537;SDS011;18147;51.952;6.146;2023-03-23T07:04:55;11.80;;;3.47;;
31537;SDS011;18147;51.952;6.146;2023-03-23T07:07:38;8.57;;;3.35;;
31537;SDS011;18147;51.952;6.146;2023-03-23T07:10:28;6.75;;;2.40;;
31537;SDS011;18147;51.952;6.146;2023-03-23T07:13:12;4.88;;;2.30;;
31537;SDS011;18147;51.952;6.146;2023-03-23T07:15:49;10.10;;;3.90;;
31537;SDS011;18147;51.952;6.146;2023-03-23T07:18:38;5.30;;;2.80;;
31537;SDS011;18147;51.952;6.146;2023-03-23T07:21:47;10.18;;;2.88;;
31537;SDS011;18147;51.952;6.146;2023-03-23T07:24:21;12.13;;;3.13;;
31537;SDS011;18147;51.952;6.146;2023-03-23T07:27:15;8.63;;;3.20;;
31537;SDS011;18147;51.952;6.146;2023-03-23T07:29:41;13.07;;;3.50;;
31537;SDS011;18147;51.952;6.146;2023-03-23T07:32:22;10.60;;;2.95;;
31537;SDS011;18147;51.952;6.146;2023-03-23T07:34:51;6.28;;;2.85;;
31537;SDS011;18147;51.952;6.146;2023-03-23T07:41:00;13.65;;;3.60;;
31537;SDS011;18147;51.952;6.146;2023-03-23T07:55:33;4.00;;;1.15;;
31537;SDS011;18147;51.952;6.146;2023-03-23T08:33:45;9.23;;;3.70;;
31537;SDS011;18147;51.952;6.146;2023-03-23T08:36:45;11.95;;;2.85;;
31537;SDS011;18147;51.952;6.146;2023-03-23T08:43:29;11.38;;;3.30;;
31537;SDS011;18147;51.952;6.146;2023-03-23T08:51:19;5.85;;;2.00;;
31537;SDS011;18147;51.952;6.146;2023-03-23T09:02:57;7.70;;;1.42;;
31537;SDS011;18147;51.952;6.146;2023-03-23T09:20:52;4.13;;;1.15;;
31537;SDS011;18147;51.952;6.146;2023-03-23T09:23:37;7.32;;;1.25;;
31537;SDS011;18147;51.952;6.146;2023-03-23T09:26:11;1.10;;;1.00;;
31537;SDS011;18147;51.952;6.146;2023-03-23T09:29:01;1.27;;;0.70;;
31537;SDS011;18147;51.952;6.146;2023-03-23T09:31:34;4.57;;;0.90;;
31537;SDS011;18147;51.952;6.146;2023-03-23T09:34:02;5.55;;;1.00;;
31537;SDS011;18147;51.952;6.146;2023-03-23T09:36:51;3.00;;;1.13;;
31537;SDS011;18147;51.952;6.146;2023-03-23T10:03:45;5.30;;;1.92;;
31537;SDS011;18147;51.952;6.146;2023-03-23T10:06:28;8.23;;;1.80;;
31537;SDS011;18147;51.952;6.146;2023-03-23T10:20:20;14.60;;;4.05;;
31537;SDS011;18147;51.952;6.146;2023-03-23T10:22:53;12.23;;;3.90;;
31537;SDS011;18147;51.952;6.146;2023-03-23T10:25:32;7.70;;;2.30;;
31537;SDS011;18147;51.952;6.146;2023-03-23T10:28:13;6.43;;;2.03;;
31537;SDS011;18147;51.952;6.146;2023-03-23T10:33:54;7.70;;;1.95;;
31537;SDS011;18147;51.952;6.146;2023-03-23T10:45:21;11.95;;;2.30;;
31537;SDS011;18147;51.952;6.146;2023-03-23T11:02:38;7.35;;;2.25;;
31537;SDS011;18147;51.952;6.146;2023-03-23T11:05:19;8.13;;;1.80;;
31537;SDS011;18147;51.952;6.146;2023-03-23T11:25:05;4.50;;;1.80;;
31537;SDS011;18147;51.952;6.146;2023-03-23T11:31:53;8.15;;;1.88;;
31537;SDS011;18147;51.952;6.146;2023-03-23T11:56:57;7.43;;;2.33;;
31537;SDS011;18147;51.952;6.146;2023-03-23T12:24:21;6.22;;;2.40;;
31537;SDS011;18147;51.952;6.146;2023-03-23T12:49:37;6.75;;;2.10;;
31537;SDS011;18147;51.952;6.146;2023-03-23T12:53:22;7.32;;;1.95;;
31537;SDS011;18147;51.952;6.146;2023-03-23T13:12:59;3.40;;;1.73;;
31537;SDS011;18147;51.952;6.146;2023-03-23T13:15:27;11.43;;;1.90;;
31537;SDS011;18147;51.952;6.146;2023-03-23T13:22:21;10.40;;;1.77;;
31537;SDS011;18147;51.952;6.146;2023-03-23T13:25:25;7.38;;;1.55;;
31537;SDS011;18147;51.952;6.146;2023-03-23T13:47:35;4.72;;;1.80;;
31537;SDS011;18147;51.952;6.146;2023-03-23T13:50:35;12.02;;;2.33;;
31537;SDS011;18147;51.952;6.146;2023-03-23T13:53:42;5.13;;;2.00;;
31537;SDS011;18147;51.952;6.146;2023-03-23T13:56:34;10.35;;;2.30;;
31537;SDS011;18147;51.952;6.146;2023-03-23T14:01:57;10.55;;;2.75;;
31537;SDS011;18147;51.952;6.146;2023-03-23T14:05:40;8.52;;;2.08;;
31537;SDS011;18147;51.952;6.146;2023-03-23T14:26:11;9.05;;;2.97;;
31537;SDS011;18147;51.952;6.146;2023-03-23T14:49:30;6.90;;;2.42;;
31537;SDS011;18147;51.952;6.146;2023-03-23T14:52:14;9.65;;;2.53;;
31537;SDS011;18147;51.952;6.146;2023-03-23T14:54:55;8.95;;;1.95;;
31537;SDS011;18147;51.952;6.146;2023-03-23T14:58:20;10.23;;;2.60;;
31537;SDS011;18147;51.952;6.146;2023-03-23T15:01:07;5.72;;;1.85;;
31537;SDS011;18147;51.952;6.146;2023-03-23T15:07:50;4.88;;;1.63;;
31537;SDS011;18147;51.952;6.146;2023-03-23T15:13:59;6.45;;;2.10;;
31537;SDS011;18147;51.952;6.146;2023-03-23T15:16:32;8.48;;;2.28;;
31537;SDS011;18147;51.952;6.146;2023-03-23T15:19:02;8.65;;;2.83;;
31537;SDS011;18147;51.952;6.146;2023-03-23T15:21:31;7.07;;;1.80;;
31537;SDS011;18147;51.952;6.146;2023-03-23T15:29:52;5.95;;;2.35;;
31537;SDS011;18147;51.952;6.146;2023-03-23T15:32:20;6.28;;;2.38;;
31537;SDS011;18147;51.952;6.146;2023-03-23T15:34:51;8.80;;;2.53;;
31537;SDS011;18147;51.952;6.146;2023-03-23T15:37:29;7.55;;;3.17;;
31537;SDS011;18147;51.952;6.146;2023-03-23T15:39:57;11.68;;;2.70;;
31537;SDS011;18147;51.952;6.146;2023-03-23T15:42:26;12.40;;;3.22;;
31537;SDS011;18147;51.952;6.146;2023-03-23T15:47:33;12.05;;;3.42;;
31537;SDS011;18147;51.952;6.146;2023-03-23T15:50:31;7.65;;;2.53;;
31537;SDS011;18147;51.952;6.146;2023-03-23T15:52:58;12.57;;;3.67;;
31537;SDS011;18147;51.952;6.146;2023-03-23T15:55:27;16.42;;;4.00;;
31537;SDS011;18147;51.952;6.146;2023-03-23T15:57:55;13.35;;;3.03;;
31537;SDS011;18147;51.952;6.146;2023-03-23T16:00:23;9.48;;;2.90;;
31537;SDS011;18147;51.952;6.146;2023-03-23T16:02:54;10.20;;;3.17;;
31537;SDS011;18147;51.952;6.146;2023-03-23T16:05:23;7.97;;;2.38;;
31537;SDS011;18147;51.952;6.146;2023-03-23T16:07:49;12.32;;;3.35;;
31537;SDS011;18147;51.952;6.146;2023-03-23T16:10:19;12.40;;;2.45;;
31537;SDS011;18147;51.952;6.146;2023-03-23T16:12:46;7.28;;;2.67;;
31537;SDS011;18147;51.952;6.146;2023-03-23T16:15:12;9.10;;;2.83;;
31537;SDS011;18147;51.952;6.146;2023-03-23T16:17:38;4.88;;;2.10;;
31537;SDS011;18147;51.952;6.146;2023-03-23T16:20:14;13.38;;;2.63;;
31537;SDS011;18147;51.952;6.146;2023-03-23T16:22:43;7.55;;;2.53;;
31537;SDS011;18147;51.952;6.146;2023-03-23T16:25:09;10.98;;;2.45;;
31537;SDS011;18147;51.952;6.146;2023-03-23T16:27:35;6.57;;;2.25;;
31537;SDS011;18147;51.952;6.146;2023-03-23T16:30:09;5.50;;;2.00;;
31537;SDS011;18147;51.952;6.146;2023-03-23T16:32:39;6.78;;;2.40;;
31537;SDS011;18147;51.952;6.146;2023-03-23T16:35:05;12.00;;;2.53;;
31537;SDS011;18147;51.952;6.146;2023-03-23T16:37:31;5.72;;;2.53;;
31537;SDS011;18147;51.952;6.146;2023-03-23T16:39:58;7.75;;;3.53;;
31537;SDS011;18147;51.952;6.146;2023-03-23T16:42:23;8.02;;;2.70;;
31537;SDS011;18147;51.952;6.146;2023-03-23T16:44:49;8.88;;;3.00;;
31537;SDS011;18147;51.952;6.146;2023-03-23T16:47:15;12.38;;;3.17;;
31537;SDS011;18147;51.952;6.146;2023-03-23T16:49:42;9.65;;;3.00;;
31537;SDS011;18147;51.952;6.146;2023-03-23T16:52:08;8.25;;;2.22;;
31537;SDS011;18147;51.952;6.146;2023-03-23T16:54:34;11.80;;;2.72;;
31537;SDS011;18147;51.952;6.146;2023-03-23T16:56:59;7.32;;;2.20;;
31537;SDS011;18147;51.952;6.146;2023-03-23T16:59:26;11.25;;;3.13;;
31537;SDS011;18147;51.952;6.146;2023-03-23T17:01:52;10.23;;;2.58;;
31537;SDS011;18147;51.952;6.146;2023-03-23T17:04:17;11.48;;;2.83;;
31537;SDS011;18147;51.952;6.146;2023-03-23T17:06:43;11.55;;;3.75;;
31537;SDS011;18147;51.952;6.146;2023-03-23T17:09:11;12.30;;;2.75;;
31537;SDS011;18147;51.952;6.146;2023-03-23T17:11:36;14.38;;;3.50;;
31537;SDS011;18147;51.952;6.146;2023-03-23T17:14:02;7.35;;;4.43;;
31537;SDS011;18147;51.952;6.146;2023-03-23T17:16:27;13.77;;;2.75;;
31537;SDS011;18147;51.952;6.146;2023-03-23T17:18:53;7.05;;;2.72;;
31537;SDS011;18147;51.952;6.146;2023-03-23T17:21:18;11.95;;;2.90;;
31537;SDS011;18147;51.952;6.146;2023-03-23T17:23:46;8.70;;;3.00;;
31537;SDS011;18147;51.952;6.146;2023-03-23T17:26:11;9.50;;;3.05;;
31537;SDS011;18147;51.952;6.146;2023-03-23T17:28:37;8.07;;;2.70;;
31537;SDS011;18147;51.952;6.146;2023-03-23T17:31:02;12.75;;;3.10;;
31537;SDS011;18147;51.952;6.146;2023-03-23T17:33:30;11.98;;;3.60;;
31537;SDS011;18147;51.952;6.146;2023-03-23T17:35:55;9.57;;;3.13;;
31537;SDS011;18147;51.952;6.146;2023-03-23T17:38:21;10.77;;;3.42;;
31537;SDS011;18147;51.952;6.146;2023-03-23T17:40:46;14.15;;;3.95;;
31537;SDS011;18147;51.952;6.146;2023-03-23T17:43:11;8.07;;;3.20;;
31537;SDS011;18147;51.952;6.146;2023-03-23T17:45:37;8.32;;;3.03;;
31537;SDS011;18147;51.952;6.146;2023-03-23T17:48:02;7.18;;;3.00;;
31537;SDS011;18147;51.952;6.146;2023-03-23T17:50:32;12.00;;;3.33;;
31537;SDS011;18147;51.952;6.146;2023-03-23T17:52:58;12.05;;;3.70;;
31537;SDS011;18147;51.952;6.146;2023-03-23T17:55:25;5.75;;;3.03;;
31537;SDS011;18147;51.952;6.146;2023-03-23T17:57:51;10.60;;;3.67;;
31537;SDS011;18147;51.952;6.146;2023-03-23T18:00:16;13.43;;;2.75;;
31537;SDS011;18147;51.952;6.146;2023-03-23T18:02:42;11.00;;;3.65;;
31537;SDS011;18147;51.952;6.146;2023-03-23T18:05:08;8.38;;;2.70;;
31537;SDS011;18147;51.952;6.146;2023-03-23T18:07:35;14.73;;;4.82;;
31537;SDS011;18147;51.952;6.146;2023-03-23T18:10:00;10.52;;;3.65;;
31537;SDS011;18147;51.952;6.146;2023-03-23T18:12:26;17.23;;;3.45;;
31537;SDS011;18147;51.952;6.146;2023-03-23T18:14:58;12.25;;;3.97;;
31537;SDS011;18147;51.952;6.146;2023-03-23T18:17:23;12.93;;;3.17;;
31537;SDS011;18147;51.952;6.146;2023-03-23T18:19:49;12.63;;;3.00;;
31537;SDS011;18147;51.952;6.146;2023-03-23T18:22:15;13.70;;;3.58;;
31537;SDS011;18147;51.952;6.146;2023-03-23T18:24:40;9.18;;;3.33;;
31537;SDS011;18147;51.952;6.146;2023-03-23T18:27:06;10.48;;;3.75;;
31537;SDS011;18147;51.952;6.146;2023-03-23T18:29:31;8.45;;;2.63;;
31537;SDS011;18147;51.952;6.146;2023-03-23T18:31:57;11.05;;;3.60;;
31537;SDS011;18147;51.952;6.146;2023-03-23T18:34:22;8.80;;;3.70;;
31537;SDS011;18147;51.952;6.146;2023-03-23T18:36:48;9.93;;;3.47;;
31537;SDS011;18147;51.952;6.146;2023-03-23T18:39:13;15.10;;;4.80;;
31537;SDS011;18147;51.952;6.146;2023-03-23T18:41:39;13.00;;;3.95;;
31537;SDS011;18147;51.952;6.146;2023-03-23T18:44:05;14.05;;;3.92;;
31537;SDS011;18147;51.952;6.146;2023-03-23T18:46:30;18.85;;;5.07;;
31537;SDS011;18147;51.952;6.146;2023-03-23T18:48:56;13.43;;;3.88;;
31537;SDS011;18147;51.952;6.146;2023-03-23T18:51:21;9.45;;;3.45;;
31537;SDS011;18147;51.952;6.146;2023-03-23T18:53:47;11.50;;;4.00;;
31537;SDS011;18147;51.952;6.146;2023-03-23T18:56:14;13.98;;;4.50;;
31537;SDS011;18147;51.952;6.146;2023-03-23T18:58:41;15.02;;;4.00;;
31537;SDS011;18147;51.952;6.146;2023-03-23T19:01:09;11.68;;;3.53;;
31537;SDS011;18147;51.952;6.146;2023-03-23T19:03:36;18.98;;;4.25;;
31537;SDS011;18147;51.952;6.146;2023-03-23T19:06:03;14.68;;;4.00;;
31537;SDS011;18147;51.952;6.146;2023-03-23T19:08:30;8.90;;;4.20;;
31537;SDS011;18147;51.952;6.146;2023-03-23T19:10:57;13.23;;;4.05;;
31537;SDS011;18147;51.952;6.146;2023-03-23T19:13:25;12.05;;;4.97;;
31537;SDS011;18147;51.952;6.146;2023-03-23T19:15:51;11.18;;;4.47;;
31537;SDS011;18147;51.952;6.146;2023-03-23T19:18:17;17.70;;;5.22;;
31537;SDS011;18147;51.952;6.146;2023-03-23T19:20:43;11.30;;;3.97;;
31537;SDS011;18147;51.952;6.146;2023-03-23T19:23:09;11.43;;;4.57;;
31537;SDS011;18147;51.952;6.146;2023-03-23T19:25:35;14.55;;;4.60;;
31537;SDS011;18147;51.952;6.146;2023-03-23T19:28:00;15.48;;;4.88;;
31537;SDS011;18147;51.952;6.146;2023-03-23T19:30:26;9.20;;;4.95;;
31537;SDS011;18147;51.952;6.146;2023-03-23T19:32:52;8.80;;;4.05;;
31537;SDS011;18147;51.952;6.146;2023-03-23T19:35:17;9.95;;;4.05;;
31537;SDS011;18147;51.952;6.146;2023-03-23T19:37:42;13.95;;;5.20;;
31537;SDS011;18147;51.952;6.146;2023-03-23T19:40:08;12.82;;;4.40;;
31537;SDS011;18147;51.952;6.146;2023-03-23T19:42:34;16.10;;;4.72;;
31537;SDS011;18147;51.952;6.146;2023-03-23T19:45:00;8.10;;;3.90;;
31537;SDS011;18147;51.952;6.146;2023-03-23T19:47:26;13.18;;;3.97;;
31537;SDS011;18147;51.952;6.146;2023-03-23T19:49:51;10.70;;;4.15;;
31537;SDS011;18147;51.952;6.146;2023-03-23T19:52:17;15.00;;;3.80;;
31537;SDS011;18147;51.952;6.146;2023-03-23T19:54:43;7.80;;;3.90;;
31537;SDS011;18147;51.952;6.146;2023-03-23T19:57:08;10.07;;;4.10;;
31537;SDS011;18147;51.952;6.146;2023-03-23T19:59:34;10.15;;;3.45;;
31537;SDS011;18147;51.952;6.146;2023-03-23T20:02:01;11.50;;;3.75;;
31537;SDS011;18147;51.952;6.146;2023-03-23T20:04:26;11.57;;;3.70;;
31537;SDS011;18147;51.952;6.146;2023-03-23T20:06:53;12.57;;;3.30;;
31537;SDS011;18147;51.952;6.146;2023-03-23T20:09:19;10.85;;;3.38;;
31537;SDS011;18147;51.952;6.146;2023-03-23T20:11:45;8.70;;;3.35;;
31537;SDS011;18147;51.952;6.146;2023-03-23T20:14:10;10.85;;;3.78;;
31537;SDS011;18147;51.952;6.146;2023-03-23T20:16:35;9.20;;;3.40;;
31537;SDS011;18147;51.952;6.146;2023-03-23T20:19:01;9.50;;;3.28;;
31537;SDS011;18147;51.952;6.146;2023-03-23T20:21:27;10.15;;;3.72;;
31537;SDS011;18147;51.952;6.146;2023-03-23T20:23:53;9.32;;;2.90;;
31537;SDS011;18147;51.952;6.146;2023-03-23T20:26:22;11.50;;;3.38;;
31537;SDS011;18147;51.952;6.146;2023-03-23T20:28:51;5.43;;;2.43;;
31537;SDS011;18147;51.952;6.146;2023-03-23T20:33:47;10.77;;;3.17;;
31537;SDS011;18147;51.952;6.146;2023-03-23T20:36:13;9.40;;;2.92;;
31537;SDS011;18147;51.952;6.146;2023-03-23T20:38:43;10.93;;;2.78;;
31537;SDS011;18147;51.952;6.146;2023-03-23T20:41:10;10.60;;;2.67;;
31537;SDS011;18147;51.952;6.146;2023-03-23T20:43:39;5.78;;;2.67;;
31537;SDS011;18147;51.952;6.146;2023-03-23T20:46:06;10.02;;;3.13;;
31537;SDS011;18147;51.952;6.146;2023-03-23T20:48:34;16.90;;;3.53;;
31537;SDS011;18147;51.952;6.146;2023-03-23T20:51:02;8.68;;;2.72;;
31537;SDS011;18147;51.952;6.146;2023-03-23T20:53:29;13.00;;;3.85;;
31537;SDS011;18147;51.952;6.146;2023-03-23T20:55:56;19.42;;;3.40;;
31537;SDS011;18147;51.952;6.146;2023-03-23T20:58:23;11.48;;;3.25;;
31537;SDS011;18147;51.952;6.146;2023-03-23T21:00:50;6.68;;;3.10;;
31537;SDS011;18147;51.952;6.146;2023-03-23T21:03:24;11.65;;;3.30;;
31537;SDS011;18147;51.952;6.146;2023-03-23T21:05:50;6.13;;;2.90;;
31537;SDS011;18147;51.952;6.146;2023-03-23T21:08:16;9.30;;;3.60;;
31537;SDS011;18147;51.952;6.146;2023-03-23T21:10:43;12.27;;;3.47;;
31537;SDS011;18147;51.952;6.146;2023-03-23T21:13:10;11.20;;;4.22;;
31537;SDS011;18147;51.952;6.146;2023-03-23T21:15:38;16.20;;;5.25;;
31537;SDS011;18147;51.952;6.146;2023-03-23T21:18:04;19.02;;;3.63;;
31537;SDS011;18147;51.952;6.146;2023-03-23T21:20:30;23.00;;;5.70;;